KAMA

Rick Husband Amarillo International Airport

Amarillo, Texas, USA
METAR KAMA 150053Z 06012KT 10SM -TSRA FEW010 BKN090 OVC110 22/18 A2997 RMK AO2 PK WND 06030/0005 LTG DSNT ALQDS RAB24 TSB2356E11B23 SLP102 P0000 T02170178
Observed Flight Rules
Aug-15 @ 00:53 UTC (10 minutes ago) Visual Flight Rules
Wind Visibility Clouds Conditions
60° at 12 knots 10 miles
  • Few at 1,000' AGL
  • Broken at 9,000' AGL
  • Overcast at 11,000' AGL
  • Light Thunderstorm
  • Light Rain
Temperatures Readings Precipitation
Current 22°C / 72°F
Dewpoint 18°C / 64°F
Humidity 78%
Altimeter 29.97" Hg
Pressure 1010.2 hPa
Elevation 1093
Current Rain 0.005
METAR KAMA 150053Z 06012KT 10SM -TSRA FEW010 BKN090 OVC110 22/18 A2997 RMK AO2 PK WND 06030/0005 LTG DSNT ALQDS RAB24 TSB2356E11B23 SLP102 P0000 T02170178
Observed Flight Rules
Aug-15 @ 00:53 UTC
(10 minutes ago)
VFR
Wind Visibility
60° at 12 knots 10 miles
Clouds
  • Few at 1,000' AGL
  • Broken at 9,000' AGL
  • Overcast at 11,000' AGL
Conditions
  • Light Thunderstorm
  • Light Rain
Temperature Dewpoint
22°C / 72°F 18°C / 64°F
Humidity Altimeter Pressure
78% 29.97" Hg 1010.2 hPa
Current Rain
0.005